الصفحة الرئيسية
METAR-TAF:

METAR-TAF

مطار :

Wanaham

Lifou, نيو كاليدونيا

دائرة عرض: 20-46S, خط طول: 167-14E, ارتفاع: 28 متر

METAR: مفقودة

زمن: 11:09 (00:09 UTC)

توقعات

تاريخ ووقت الإصدار 7ساعات و 9 دقيقة قبل الساعة 17:00UTC
التوقعات صالحة من28 الساعة 18 UTC إلى 29 الساعة 18 UTC
ريح 15 عقدة من الشرق/الجنوب الشرقي
الرؤية 10 كم أو أكثر
غيوم متفرقة على ارتفاع 1800 قدم
غيوم مفككة على ارتفاع 3500 قدم
مؤقت
من 28 الساعة 18 UTC إلى 28 الساعة 24 UTC
الرؤية: 4000 متر
غيوم مفككة على ارتفاع 1400 قدم
مطر
نظرية الاحتمالات 40% :
مؤقت
من 29 الساعة 00 UTC إلى 29 الساعة 09 UTC
ريح 15 عقدة من الشرق/الجنوب الشرقي تتزايد حتى 25 عقدة

TAF: NWWL 281700Z 2818/2918 12015KT 9999 SCT018 BKN035 TEMPO 2818/2824 4000 RA BKN014 PROB40 TEMPO 2900/2909 12015G25KT

أرصاد الطقس والتوقعات من أكثر من 4000 مطار (تقارير الطقس للمطار METAR والتنبؤ بالطقس بالمطارTAF).

المحطات المتاحة هي النقط الصفراء والحمراء على الخريطة.

حرك المؤشر فوق النقطة لمعرفة اسم المحطة.

ثم انقر لمعرفة أرصاد وتوقعات الطقس.

لتغيير الخارطة: اضغط على الأزرار الخضراء مع رمز الصليب الأسود للتكبير. على الزر الأخضر مع شرطة للتصغير، أو على الأسهم الخضراء للخرائط المجاورة.


METAR-TAF: